createdAt,value
2023-03-27T00:06:28.445Z,6.07
2023-03-27T00:21:30.232Z,6.13
2023-03-27T00:36:32.265Z,6.60
2023-03-27T00:51:36.683Z,6.63
2023-03-27T01:06:42.184Z,5.70
2023-03-27T01:22:03.266Z,7.00
2023-03-27T01:37:06.603Z,7.23
2023-03-27T01:52:15.544Z,7.70
2023-03-27T02:07:27.414Z,8.40
2023-03-27T02:22:37.648Z,7.67
2023-03-27T02:37:52.141Z,7.33
2023-03-27T02:53:01.331Z,7.30
2023-03-27T03:08:04.660Z,6.87
2023-03-27T03:23:07.022Z,5.63
2023-03-27T03:38:08.955Z,5.73
2023-03-27T03:53:11.214Z,5.60
2023-03-27T04:08:13.123Z,6.13
2023-03-27T04:23:18.610Z,5.90
2023-03-27T04:38:20.295Z,5.97
2023-03-27T04:53:23.424Z,5.63
2023-03-27T05:08:25.225Z,6.17
2023-03-27T05:23:27.682Z,6.77
2023-03-27T05:38:29.946Z,7.00
2023-03-27T05:53:32.440Z,5.63
2023-03-27T06:08:35.115Z,5.20
2023-03-27T06:23:37.050Z,3.70
2023-03-27T06:38:38.911Z,8.70
2023-03-27T06:53:41.383Z,11.63
2023-03-27T07:08:43.074Z,8.00
2023-03-27T07:23:45.638Z,6.13
2023-03-27T07:38:47.588Z,5.10
2023-03-27T07:53:54.122Z,5.37
2023-03-27T08:08:57.188Z,4.50
2023-03-27T08:24:00.655Z,5.17
2023-03-27T08:39:03.092Z,4.10
2023-03-27T08:54:14.016Z,3.50
2023-03-27T09:09:27.862Z,2.53
2023-03-27T09:24:39.273Z,2.40
2023-03-27T09:39:46.871Z,2.40
2023-03-27T09:54:54.363Z,3.00
2023-03-27T10:10:17.704Z,3.07
2023-03-27T10:25:26.368Z,3.10
2023-03-27T10:40:33.031Z,2.77
2023-03-27T10:55:44.685Z,3.60
2023-03-27T11:10:47.658Z,4.03
2023-03-27T11:25:53.678Z,3.50
2023-03-27T11:40:56.760Z,2.80
2023-03-27T11:56:20.022Z,3.43
2023-03-27T12:11:24.401Z,1.30
2023-03-27T12:26:47.464Z,1.20
2023-03-27T12:41:49.150Z,1.30
2023-03-27T12:56:59.542Z,1.40
2023-03-27T13:12:10.451Z,2.03
2023-03-27T13:27:23.623Z,1.80
2023-03-27T13:42:34.819Z,1.93
2023-03-27T13:57:45.578Z,2.30
2023-03-27T14:12:59.267Z,2.50
2023-03-27T14:28:01.432Z,2.30
2023-03-27T14:43:07.408Z,4.43
2023-03-27T14:58:18.435Z,5.43
2023-03-27T15:13:23.255Z,4.20
2023-03-27T15:28:34.088Z,4.67
2023-03-27T15:43:35.965Z,4.23
2023-03-27T15:58:52.041Z,3.80
2023-03-27T16:13:59.318Z,2.70
2023-03-27T16:29:04.631Z,4.10
2023-03-27T16:44:06.347Z,6.37
2023-03-27T16:59:08.102Z,7.67
2023-03-27T17:14:10.004Z,5.70
2023-03-27T17:29:11.765Z,7.70
2023-03-27T17:44:13.576Z,7.17
2023-03-27T17:59:18.393Z,8.53
2023-03-27T18:14:20.374Z,8.90
2023-03-27T18:29:24.212Z,2.00
2023-03-27T18:44:26.246Z,2.37
2023-03-27T18:59:27.947Z,2.67
2023-03-27T19:14:29.860Z,2.93
2023-03-27T19:29:31.740Z,3.73
2023-03-27T19:44:33.541Z,3.90
2023-03-27T19:59:35.542Z,3.90
2023-03-27T20:14:37.336Z,3.80
2023-03-27T20:29:39.120Z,3.93
2023-03-27T20:44:45.577Z,3.03
2023-03-27T20:59:48.274Z,2.80
2023-03-27T21:14:50.066Z,3.13
2023-03-27T21:29:51.894Z,3.80
2023-03-27T21:44:56.508Z,3.63
2023-03-27T21:59:59.098Z,3.50
2023-03-27T22:15:01.129Z,3.57
2023-03-27T22:30:03.598Z,3.60
2023-03-27T22:45:06.022Z,4.77
2023-03-27T23:00:08.261Z,5.80
2023-03-27T23:15:11.207Z,5.07
2023-03-27T23:30:13.638Z,3.47
2023-03-27T23:45:15.408Z,2.50
